Weather History for Centerville, IA

Change the Weather History Date:

Sunday, November 20, 2011

  Actual Average Record
Temperature  
Mean Temperature 30 °F -  
Max Temperature 33 °F 47 °F 67 °F (1990)
Min Temperature 28 °F 29 °F 11 °F (1950)
Degree Days  
Heating Degree Days 34    
Moisture  
Dew Point 26 °F    
Average Humidity 81    
Maximum Humidity 86    
Minimum Humidity 75    
Precipitation  
Precipitation 0.00 in - - ()
Sea Level Pressure  
Sea Level Pressure 30.25 in    
Wind  
Wind Speed 11 mph (NNE)    
Max Wind Speed 17 mph    
Max Gust Speed 23 mph    
Visibility 10 miles    
Events Rain    
Averages and records for this station are not official NWS values.
T = Trace of Precipitation, MM = Missing Value Source: NWS Daily Summary

Daily Weather History Graph

Daily Weather History Graph

Search for Another Location

Airport:

Trip Planner

Search our weather history database for the weather conditions in past years. The results will help you decide how hot, cold, wet, or windy it might be!

Date:

Astronomy

Nov. 20, 2011 Rise Set
Actual Time 7:03 AM CST 4:50 PM CST
Civil Twilight 6:34 AM CST 5:19 PM CST
Nautical Twilight 6:00 AM CST 5:53 PM CST
Astronomical Twilight 5:28 AM CST 6:25 PM CST
Moon 1:31 AM CST (11/20) 1:40 PM CST (11/20)
Length of Visible Light 10h 45m
Length of Day
9h 46m
Waning Crescent, 27% of the Moon is Illuminated
Nov 20
Waning Crescent
Nov 25
New
Dec 2
First Quarter
Dec 10
Full
Dec 17
Last Quarter

Hourly Weather History & Observations

Time (CST) Temp. Windchill Dew Point Humidity Pressure Visibility Wind Dir Wind Speed Gust Speed Precip Events Conditions
12:35 AM 30.2 °F 19.8 °F 24.8 °F 80% 30.13 in 10.0 mi NNW 13.8 mph - N/A   Overcast
12:55 AM 30.2 °F 18.9 °F 24.8 °F 80% 30.14 in 10.0 mi NNW 16.1 mph 23.0 mph N/A   Overcast
1:15 AM 30.2 °F 18.5 °F 24.8 °F 80% 30.14 in 10.0 mi NW 17.3 mph 21.9 mph N/A   Overcast
1:35 AM 30.2 °F 19.3 °F 24.8 °F 80% 30.15 in 10.0 mi NNW 15.0 mph - N/A   Overcast
1:55 AM 30.2 °F 19.3 °F 24.8 °F 80% 30.16 in 10.0 mi NNW 15.0 mph 19.6 mph N/A   Overcast
2:15 AM 30.2 °F 19.3 °F 24.8 °F 80% 30.17 in 10.0 mi North 15.0 mph 20.7 mph N/A   Overcast
2:35 AM 30.2 °F 21.9 °F 24.8 °F 80% 30.18 in 10.0 mi North 9.2 mph - N/A   Overcast
2:55 AM 30.2 °F 20.8 °F 24.8 °F 80% 30.18 in 10.0 mi NNW 11.5 mph - N/A   Overcast
3:15 AM 28.4 °F 17.5 °F 24.8 °F 86% 30.19 in 10.0 mi North 13.8 mph 18.4 mph N/A   Overcast
3:35 AM 28.4 °F 17.5 °F 24.8 °F 86% 30.19 in 10.0 mi NNW 13.8 mph - N/A   Overcast
3:55 AM 28.4 °F 19.7 °F 24.8 °F 86% 30.19 in 10.0 mi North 9.2 mph - N/A   Overcast
4:15 AM 28.4 °F 19.7 °F 24.8 °F 86% 30.19 in 10.0 mi North 9.2 mph - N/A   Overcast
4:35 AM 28.4 °F 18.0 °F 24.8 °F 86% 30.20 in 10.0 mi North 12.7 mph - N/A   Overcast
4:55 AM 28.4 °F 20.4 °F 24.8 °F 86% 30.21 in 10.0 mi North 8.1 mph - N/A   Overcast
5:15 AM 28.4 °F 20.4 °F 24.8 °F 86% 30.22 in 10.0 mi North 8.1 mph - N/A   Overcast
5:35 AM 28.4 °F 20.4 °F 24.8 °F 86% 30.22 in 10.0 mi North 8.1 mph - N/A   Overcast
5:55 AM 28.4 °F 19.7 °F 24.8 °F 86% 30.22 in 10.0 mi North 9.2 mph - N/A   Overcast
6:15 AM 28.4 °F 21.2 °F 24.8 °F 86% 30.22 in 10.0 mi North 6.9 mph - N/A   Overcast
6:35 AM 28.4 °F 21.2 °F 24.8 °F 86% 30.23 in 10.0 mi North 6.9 mph - N/A   Overcast
6:55 AM 28.4 °F 20.4 °F 24.8 °F 86% 30.24 in 10.0 mi NNE 8.1 mph - N/A   Overcast
7:15 AM 28.4 °F 20.4 °F 24.8 °F 86% 30.25 in 10.0 mi NNE 8.1 mph - N/A   Overcast
7:35 AM 28.4 °F 22.2 °F 24.8 °F 86% 30.27 in 10.0 mi NNE 5.8 mph - N/A   Overcast
7:55 AM 28.4 °F 19.7 °F 24.8 °F 86% 30.27 in 10.0 mi North 9.2 mph - N/A   Overcast
8:15 AM 28.4 °F 19.1 °F 24.8 °F 86% 30.27 in 10.0 mi North 10.4 mph - N/A   Overcast
8:35 AM 28.4 °F 19.1 °F 24.8 °F 86% 30.28 in 10.0 mi North 10.4 mph - N/A   Overcast
9:15 AM 28.4 °F 20.4 °F 24.8 °F 86% 30.29 in 10.0 mi North 8.1 mph - N/A   Overcast
9:35 AM 28.4 °F 19.7 °F 24.8 °F 86% 30.30 in 10.0 mi NNE 9.2 mph - N/A   Overcast
9:55 AM 28.4 °F 19.1 °F 24.8 °F 86% 30.30 in 10.0 mi North 10.4 mph - N/A   Overcast
10:15 AM 28.4 °F 20.4 °F 24.8 °F 86% 30.29 in 10.0 mi NNE 8.1 mph - N/A   Overcast
10:55 AM 30.2 °F 23.4 °F 24.8 °F 80% 30.30 in 10.0 mi North 6.9 mph - N/A   Overcast
11:15 AM 30.2 °F 22.6 °F 24.8 °F 80% 30.29 in 10.0 mi NNE 8.1 mph - N/A   Overcast
11:35 AM 32.0 °F 23.6 °F 24.8 °F 75% 30.29 in 10.0 mi North 10.4 mph - N/A   Mostly Cloudy
11:55 AM 32.0 °F 24.2 °F 24.8 °F 75% 30.28 in 10.0 mi North 9.2 mph - N/A   Mostly Cloudy
12:15 PM 32.0 °F 23.6 °F 26.6 °F 80% 30.29 in 10.0 mi North 10.4 mph - N/A   Overcast
12:35 PM 32.0 °F 24.2 °F 24.8 °F 75% 30.29 in 10.0 mi North 9.2 mph - N/A   Mostly Cloudy
12:55 PM 32.0 °F 23.6 °F 26.6 °F 80% 30.26 in 10.0 mi North 10.4 mph - N/A   Mostly Cloudy
1:15 PM 32.0 °F 23.6 °F 26.6 °F 80% 30.27 in 10.0 mi NNE 10.4 mph - N/A   Mostly Cloudy
1:35 PM 32.0 °F 23.0 °F 26.6 °F 80% 30.27 in 10.0 mi North 11.5 mph - N/A   Mostly Cloudy
2:15 PM 32.0 °F 24.8 °F 26.6 °F 80% 30.26 in 10.0 mi North 8.1 mph - N/A Rain Light Rain
2:35 PM 32.0 °F 24.2 °F 26.6 °F 80% 30.26 in 10.0 mi NNE 9.2 mph - N/A   Mostly Cloudy
2:55 PM 32.0 °F 23.6 °F 26.6 °F 80% 30.25 in 10.0 mi NNE 10.4 mph - N/A   Mostly Cloudy
3:15 PM 32.0 °F 25.6 °F 26.6 °F 80% 30.25 in 10.0 mi NNE 6.9 mph - N/A   Mostly Cloudy
3:35 PM 32.0 °F 24.2 °F 26.6 °F 80% 30.25 in 10.0 mi NNE 9.2 mph - N/A   Scattered Clouds
3:55 PM 32.0 °F 24.8 °F 26.6 °F 80% 30.26 in 10.0 mi NNE 8.1 mph - N/A   Mostly Cloudy
4:15 PM 32.0 °F 25.6 °F 26.6 °F 80% 30.26 in 10.0 mi NNE 6.9 mph - N/A   Mostly Cloudy
4:35 PM 33.8 °F 27.7 °F 26.6 °F 75% 30.25 in 10.0 mi NNE 6.9 mph - N/A   Overcast
4:55 PM 33.8 °F 28.6 °F 26.6 °F 75% 30.25 in 10.0 mi NNE 5.8 mph - N/A   Mostly Cloudy
5:15 PM 33.8 °F 30.8 °F 26.6 °F 75% 30.26 in 10.0 mi ENE 3.5 mph - N/A   Mostly Cloudy
5:35 PM 33.8 °F 29.6 °F 26.6 °F 75% 30.28 in 10.0 mi NE 4.6 mph - N/A   Overcast
5:55 PM 33.8 °F 30.8 °F 26.6 °F 75% 30.28 in 10.0 mi ENE 3.5 mph - N/A   Mostly Cloudy
6:15 PM 33.8 °F - 26.6 °F 75% 30.30 in 10.0 mi Calm Calm - N/A   Mostly Cloudy
6:35 PM 33.8 °F 26.4 °F 26.6 °F 75% 30.27 in 10.0 mi NE 9.2 mph - N/A   Mostly Cloudy
6:55 PM 33.8 °F 29.6 °F 26.6 °F 75% 30.30 in 10.0 mi NNE 4.6 mph - N/A   Mostly Cloudy
7:15 PM 33.8 °F 27.7 °F 26.6 °F 75% 30.28 in 10.0 mi NE 6.9 mph - N/A   Overcast
7:35 PM 33.8 °F 27.0 °F 26.6 °F 75% 30.26 in 10.0 mi NE 8.1 mph - N/A   Scattered Clouds
7:55 PM 33.8 °F 29.6 °F 26.6 °F 75% 30.28 in 10.0 mi NE 4.6 mph - N/A   Clear
8:15 PM 33.8 °F 27.7 °F 28.4 °F 81% 30.28 in 10.0 mi NE 6.9 mph - N/A   Partly Cloudy
8:35 PM 33.8 °F 28.6 °F 28.4 °F 81% 30.27 in 10.0 mi NE 5.8 mph - N/A   Clear
8:55 PM 33.8 °F 28.6 °F 28.4 °F 81% 30.26 in 10.0 mi NNE 5.8 mph - N/A   Clear
9:15 PM 33.8 °F 29.6 °F 28.4 °F 81% 30.27 in 10.0 mi NE 4.6 mph - N/A   Partly Cloudy
9:35 PM 33.8 °F 29.6 °F 28.4 °F 81% 30.27 in 10.0 mi ENE 4.6 mph - N/A   Partly Cloudy
9:55 PM 33.8 °F 29.6 °F 28.4 °F 81% 30.27 in 10.0 mi NNE 4.6 mph - N/A   Mostly Cloudy
10:15 PM 33.8 °F 30.8 °F 28.4 °F 81% 30.27 in 10.0 mi NE 3.5 mph - N/A   Overcast
10:35 PM 35.6 °F 30.7 °F 28.4 °F 75% 30.26 in 10.0 mi NE 5.8 mph - N/A   Overcast
10:55 PM 33.8 °F 29.6 °F 28.4 °F 81% 30.26 in 10.0 mi NE 4.6 mph - N/A   Overcast
11:15 PM 33.8 °F 28.6 °F 28.4 °F 81% 30.25 in 10.0 mi NNE 5.8 mph - N/A   Overcast
11:35 PM 35.6 °F 30.7 °F 28.4 °F 75% 30.24 in 10.0 mi NE 5.8 mph - N/A   Overcast